sensor_id;sensor_type;location;lat;lon;timestamp;temperature;humidity
66610;DHT22;53468;48.276;14.416;2022-11-12T00:02:32;7.00;99.90
66610;DHT22;53468;48.276;14.416;2022-11-12T00:09:17;7.00;99.90
66610;DHT22;53468;48.276;14.416;2022-11-12T00:41:28;6.80;99.90
66610;DHT22;53468;48.276;14.416;2022-11-12T00:48:17;6.90;99.90
66610;DHT22;53468;48.276;14.416;2022-11-12T00:54:47;6.80;99.90
66610;DHT22;53468;48.276;14.416;2022-11-12T01:01:02;6.90;99.90
66610;DHT22;53468;48.276;14.416;2022-11-12T01:07:10;6.90;99.90
66610;DHT22;53468;48.276;14.416;2022-11-12T01:13:32;6.80;99.90
66610;DHT22;53468;48.276;14.416;2022-11-12T01:19:58;6.80;99.90
66610;DHT22;53468;48.276;14.416;2022-11-12T01:25:58;6.80;99.90
66610;DHT22;53468;48.276;14.416;2022-11-12T01:32:13;6.80;99.90
66610;DHT22;53468;48.276;14.416;2022-11-12T01:38:43;6.80;99.90
66610;DHT22;53468;48.276;14.416;2022-11-12T02:03:52;6.70;99.90
66610;DHT22;53468;48.276;14.416;2022-11-12T02:09:30;6.70;99.90
66610;DHT22;53468;48.276;14.416;2022-11-12T02:15:21;6.60;99.90
66610;DHT22;53468;48.276;14.416;2022-11-12T02:40:27;6.40;99.90
66610;DHT22;53468;48.276;14.416;2022-11-12T02:46:40;6.50;99.90
66610;DHT22;53468;48.276;14.416;2022-11-12T02:52:40;6.40;99.90
66610;DHT22;53468;48.276;14.416;2022-11-12T02:58:46;6.40;99.90
66610;DHT22;53468;48.276;14.416;2022-11-12T03:04:57;6.40;99.90
66610;DHT22;53468;48.276;14.416;2022-11-12T03:17:48;6.40;99.90
66610;DHT22;53468;48.276;14.416;2022-11-12T03:23:37;6.20;99.90
66610;DHT22;53468;48.276;14.416;2022-11-12T03:29:30;6.30;99.90
66610;DHT22;53468;48.276;14.416;2022-11-12T03:35:33;6.20;99.90
66610;DHT22;53468;48.276;14.416;2022-11-12T03:41:32;6.30;99.90
66610;DHT22;53468;48.276;14.416;2022-11-12T04:19:35;6.10;99.90
66610;DHT22;53468;48.276;14.416;2022-11-12T04:25:46;6.10;99.90
66610;DHT22;53468;48.276;14.416;2022-11-12T04:31:41;6.10;99.90
66610;DHT22;53468;48.276;14.416;2022-11-12T05:04:02;6.20;99.90
66610;DHT22;53468;48.276;14.416;2022-11-12T05:10:06;6.20;99.90
66610;DHT22;53468;48.276;14.416;2022-11-12T05:16:37;6.20;99.90
66610;DHT22;53468;48.276;14.416;2022-11-12T05:48:16;6.10;99.90
66610;DHT22;53468;48.276;14.416;2022-11-12T05:54:03;6.10;99.90
66610;DHT22;53468;48.276;14.416;2022-11-12T06:00:08;6.20;99.90
66610;DHT22;53468;48.276;14.416;2022-11-12T06:12:58;6.10;99.90
66610;DHT22;53468;48.276;14.416;2022-11-12T06:18:48;6.20;99.90
66610;DHT22;53468;48.276;14.416;2022-11-12T06:24:41;6.10;99.90
66610;DHT22;53468;48.276;14.416;2022-11-12T06:51:05;6.00;99.90
66610;DHT22;53468;48.276;14.416;2022-11-12T06:57:14;5.90;99.90
66610;DHT22;53468;48.276;14.416;2022-11-12T07:03:30;6.00;99.90
66610;DHT22;53468;48.276;14.416;2022-11-12T07:15:39;6.10;99.90
66610;DHT22;53468;48.276;14.416;2022-11-12T07:21:16;6.10;99.90
66610;DHT22;53468;48.276;14.416;2022-11-12T07:27:05;6.10;99.90
66610;DHT22;53468;48.276;14.416;2022-11-12T07:33:25;6.10;99.90
66610;DHT22;53468;48.276;14.416;2022-11-12T07:45:37;6.00;99.90
66610;DHT22;53468;48.276;14.416;2022-11-12T07:51:13;6.20;99.90
66610;DHT22;53468;48.276;14.416;2022-11-12T07:57:16;6.30;99.90
66610;DHT22;53468;48.276;14.416;2022-11-12T08:02:57;6.40;99.90
66610;DHT22;53468;48.276;14.416;2022-11-12T08:15:13;6.40;99.90
66610;DHT22;53468;48.276;14.416;2022-11-12T08:27:37;6.40;99.90
66610;DHT22;53468;48.276;14.416;2022-11-12T09:50:46;7.10;99.90
66610;DHT22;53468;48.276;14.416;2022-11-12T17:03:18;6.90;99.90
66610;DHT22;53468;48.276;14.416;2022-11-12T17:09:04;7.00;99.90
66610;DHT22;53468;48.276;14.416;2022-11-12T17:14:37;7.00;99.90
66610;DHT22;53468;48.276;14.416;2022-11-12T17:20:11;6.80;99.90
66610;DHT22;53468;48.276;14.416;2022-11-12T17:25:43;6.90;99.90
66610;DHT22;53468;48.276;14.416;2022-11-12T17:31:19;6.90;99.90
66610;DHT22;53468;48.276;14.416;2022-11-12T17:36:54;6.80;99.90
66610;DHT22;53468;48.276;14.416;2022-11-12T17:42:26;6.90;99.90
66610;DHT22;53468;48.276;14.416;2022-11-12T17:47:59;6.90;99.90
66610;DHT22;53468;48.276;14.416;2022-11-12T17:53:33;6.80;99.90
66610;DHT22;53468;48.276;14.416;2022-11-12T17:59:05;6.80;99.90
66610;DHT22;53468;48.276;14.416;2022-11-12T18:04:39;6.80;99.90
66610;DHT22;53468;48.276;14.416;2022-11-12T18:10:13;6.80;99.90
66610;DHT22;53468;48.276;14.416;2022-11-12T18:15:45;6.70;99.90
66610;DHT22;53468;48.276;14.416;2022-11-12T18:21:17;6.70;99.90
66610;DHT22;53468;48.276;14.416;2022-11-12T18:26:51;6.60;99.90
66610;DHT22;53468;48.276;14.416;2022-11-12T18:32:23;6.60;99.90
66610;DHT22;53468;48.276;14.416;2022-11-12T18:37:55;6.50;99.90
66610;DHT22;53468;48.276;14.416;2022-11-12T18:43:30;6.50;99.90
66610;DHT22;53468;48.276;14.416;2022-11-12T18:49:03;6.50;99.90
66610;DHT22;53468;48.276;14.416;2022-11-12T18:54:35;6.40;99.90
66610;DHT22;53468;48.276;14.416;2022-11-12T19:00:10;6.40;99.90
66610;DHT22;53468;48.276;14.416;2022-11-12T19:06:04;6.40;99.90
66610;DHT22;53468;48.276;14.416;2022-11-12T19:12:42;6.40;99.90
66610;DHT22;53468;48.276;14.416;2022-11-12T19:24:55;6.20;99.90
66610;DHT22;53468;48.276;14.416;2022-11-12T19:30:36;6.00;99.90
66610;DHT22;53468;48.276;14.416;2022-11-12T19:36:25;5.90;99.90
66610;DHT22;53468;48.276;14.416;2022-11-12T19:42:21;6.00;99.90
66610;DHT22;53468;48.276;14.416;2022-11-12T19:48:11;5.90;99.90
66610;DHT22;53468;48.276;14.416;2022-11-12T19:54:06;5.80;99.90
66610;DHT22;53468;48.276;14.416;2022-11-12T19:59:53;5.80;99.90
66610;DHT22;53468;48.276;14.416;2022-11-12T20:05:43;5.60;99.90
